createdAt,value
2022-08-07T00:02:36.810Z,101268.48
2022-08-07T00:07:23.414Z,101277.59
2022-08-07T00:12:30.413Z,101281.61
2022-08-07T00:17:35.896Z,101279.92
2022-08-07T00:22:38.841Z,101283.11
2022-08-07T00:27:52.425Z,101284.56
2022-08-07T00:32:58.347Z,101281.09
2022-08-07T00:38:01.586Z,101283.91
2022-08-07T00:43:09.906Z,101285.64
2022-08-07T00:48:13.578Z,101282.80
2022-08-07T00:53:16.784Z,101277.90
2022-08-07T00:58:21.406Z,101285.29
2022-08-07T01:03:56.617Z,101281.80
2022-08-07T01:08:53.661Z,101274.27
2022-08-07T01:13:58.630Z,101278.65
2022-08-07T01:19:01.421Z,101276.95
2022-08-07T01:24:07.996Z,101273.91
2022-08-07T01:29:14.168Z,101272.80
2022-08-07T01:34:20.695Z,101271.11
2022-08-07T01:39:41.154Z,101273.27
2022-08-07T01:44:49.618Z,101274.75
2022-08-07T01:49:54.702Z,101274.27
2022-08-07T01:55:00.929Z,101276.90
2022-08-07T02:00:12.772Z,101275.02
2022-08-07T02:05:43.344Z,101271.71
2022-08-07T02:10:58.109Z,101272.38
2022-08-07T02:16:03.565Z,101269.80
2022-08-07T02:21:16.039Z,101271.36
2022-08-07T02:26:32.854Z,101273.16
2022-08-07T02:31:38.851Z,101270.95
2022-08-07T02:36:45.326Z,101272.24
2022-08-07T02:41:50.696Z,101270.88
2022-08-07T02:46:59.347Z,101272.59
2022-08-07T02:52:06.837Z,101278.46
2022-08-07T02:57:14.279Z,101273.19
2022-08-07T03:02:18.219Z,101274.52
2022-08-07T03:07:25.272Z,101278.63
2022-08-07T03:12:46.984Z,101271.46
2022-08-07T03:17:53.508Z,101271.45
2022-08-07T03:22:58.722Z,101269.00
2022-08-07T03:28:09.481Z,101270.37
2022-08-07T03:33:32.236Z,101268.05
2022-08-07T03:38:45.256Z,101267.09
2022-08-07T03:43:57.445Z,101268.19
2022-08-07T03:49:03.320Z,101268.23
2022-08-07T03:54:35.590Z,101268.48
2022-08-07T03:59:29.650Z,101272.46
2022-08-07T04:04:32.897Z,101271.32
2022-08-07T04:09:45.103Z,101277.23
2022-08-07T04:14:53.913Z,101275.77
2022-08-07T04:19:59.066Z,101277.21
2022-08-07T04:25:02.607Z,101285.96
2022-08-07T04:30:11.861Z,101287.05
2022-08-07T04:35:24.876Z,101295.03
2022-08-07T04:40:29.939Z,101294.72
2022-08-07T04:46:02.261Z,101302.06
2022-08-07T04:51:12.810Z,101304.77
2022-08-07T04:58:13.817Z,101308.85
2022-08-07T05:02:01.255Z,101306.83
2022-08-07T05:07:20.574Z,101307.34
2022-08-07T05:12:53.050Z,101313.84
2022-08-07T05:18:01.771Z,101314.95
2022-08-07T05:23:30.146Z,101313.65
2022-08-07T05:28:35.847Z,101312.92
2022-08-07T05:33:40.410Z,101318.03
2022-08-07T05:38:59.412Z,101316.02
2022-08-07T05:44:12.225Z,101312.64
2022-08-07T05:49:16.243Z,101313.50
2022-08-07T05:54:30.552Z,101309.11
2022-08-07T05:59:47.334Z,101311.17
2022-08-07T06:05:11.016Z,101313.35
2022-08-07T06:10:18.943Z,101308.25
2022-08-07T06:15:39.312Z,101308.67
2022-08-07T06:20:50.436Z,101311.63
2022-08-07T06:26:13.634Z,101307.77
2022-08-07T06:31:18.218Z,101308.04
2022-08-07T06:36:27.480Z,101304.32
2022-08-07T06:42:10.384Z,101298.80
2022-08-07T06:47:15.482Z,101303.23
2022-08-07T06:52:31.557Z,101306.13
2022-08-07T06:57:47.678Z,101313.50
2022-08-07T07:03:00.924Z,101322.10
2022-08-07T07:08:07.323Z,101322.34
2022-08-07T07:13:58.091Z,101322.55
2022-08-07T07:19:40.978Z,101322.41
2022-08-07T07:24:31.974Z,101325.14
2022-08-07T07:29:56.428Z,101326.52
2022-08-07T07:35:04.035Z,101325.95
2022-08-07T07:40:15.317Z,101325.41
2022-08-07T07:46:33.383Z,101322.69
2022-08-07T07:50:47.433Z,101324.22
2022-08-07T07:56:00.961Z,101314.58
2022-08-07T08:02:03.603Z,101315.92
2022-08-07T08:06:31.262Z,101316.60
2022-08-07T08:11:59.196Z,101318.48
2022-08-07T08:17:56.738Z,101314.33
2022-08-07T08:22:55.845Z,101319.17
2022-08-07T08:28:03.862Z,101318.14
2022-08-07T08:33:15.050Z,101318.27
2022-08-07T08:38:25.788Z,101330.38
2022-08-07T08:43:55.861Z,101331.80
2022-08-07T08:49:17.226Z,101332.75
2022-08-07T08:54:29.142Z,101328.88
2022-08-07T08:59:51.229Z,101322.89
2022-08-07T09:05:04.934Z,101327.10
2022-08-07T09:10:14.722Z,101318.80
2022-08-07T09:16:22.441Z,101315.81
2022-08-07T09:21:34.152Z,101316.41
2022-08-07T09:27:16.686Z,101308.52
2022-08-07T09:32:35.410Z,101307.53
2022-08-07T09:38:04.472Z,101305.02
2022-08-07T09:44:03.463Z,101303.27
2022-08-07T09:50:03.007Z,101294.48
2022-08-07T09:54:56.535Z,101287.25
2022-08-07T10:00:05.521Z,101284.65
2022-08-07T10:05:17.059Z,101281.75
2022-08-07T10:11:00.331Z,101277.81
2022-08-07T10:16:21.340Z,101271.08
2022-08-07T10:22:02.788Z,101271.31
2022-08-07T10:27:17.746Z,101267.80
2022-08-07T10:32:53.337Z,101268.23
2022-08-07T10:38:42.284Z,101257.73
2022-08-07T10:44:28.747Z,101249.01
2022-08-07T10:49:51.269Z,101237.84
2022-08-07T10:55:26.987Z,101238.67
2022-08-07T11:00:43.019Z,101229.72
2022-08-07T11:05:58.798Z,101237.00
2022-08-07T11:11:11.702Z,101232.95
2022-08-07T11:16:29.975Z,101224.72
2022-08-07T11:22:06.352Z,101222.55
2022-08-07T11:28:02.665Z,101220.33
2022-08-07T11:33:53.925Z,101214.63
2022-08-07T11:39:58.934Z,101217.17
2022-08-07T11:45:09.391Z,101213.66
2022-08-07T11:50:57.905Z,101208.70
2022-08-07T11:56:28.117Z,101203.67
2022-08-07T12:01:59.795Z,101205.84
2022-08-07T12:07:27.692Z,101207.27
2022-08-07T12:12:47.989Z,101207.67
2022-08-07T12:18:08.138Z,101202.45
2022-08-07T12:24:07.615Z,101198.36
2022-08-07T12:29:20.267Z,101197.05
2022-08-07T12:34:29.635Z,101194.23
2022-08-07T12:39:42.106Z,101198.20
2022-08-07T12:44:48.918Z,101198.80
2022-08-07T12:50:04.940Z,101197.35
2022-08-07T12:56:02.096Z,101192.46
2022-08-07T13:01:17.226Z,101186.41
2022-08-07T13:07:00.127Z,101187.98
2022-08-07T13:12:15.150Z,101185.86
2022-08-07T13:17:40.600Z,101181.54
2022-08-07T13:22:56.512Z,101178.77
2022-08-07T13:28:12.802Z,101172.46
2022-08-07T13:34:32.872Z,101167.39
2022-08-07T13:39:28.193Z,101161.52
2022-08-07T13:44:43.459Z,101157.52
2022-08-07T13:50:33.595Z,101156.50
2022-08-07T13:55:26.300Z,101159.84
2022-08-07T14:00:39.693Z,101157.28
2022-08-07T14:05:58.593Z,101154.95
2022-08-07T14:11:14.907Z,101156.84
2022-08-07T14:16:31.139Z,101149.13
2022-08-07T14:22:04.095Z,101150.31
2022-08-07T14:28:09.198Z,101153.30
2022-08-07T14:32:41.220Z,101148.54
2022-08-07T14:38:05.785Z,101143.84
2022-08-07T14:43:55.169Z,101145.52
2022-08-07T14:48:37.375Z,101141.30
2022-08-07T14:59:13.934Z,101141.30
2022-08-07T15:04:40.553Z,101140.00
2022-08-07T15:10:02.018Z,101130.48
2022-08-07T15:15:17.407Z,101129.33
2022-08-07T15:20:54.922Z,101123.90
2022-08-07T15:26:02.109Z,101127.15
2022-08-07T15:31:09.777Z,101126.58
2022-08-07T15:36:13.966Z,101129.05
2022-08-07T15:52:36.736Z,101110.52
2022-08-07T15:57:48.836Z,101108.86
2022-08-07T16:02:57.510Z,101113.61
2022-08-07T16:08:31.786Z,101107.70
2022-08-07T16:14:17.257Z,101108.11
2022-08-07T16:20:07.572Z,101101.48
2022-08-07T16:25:55.450Z,101100.14
2022-08-07T16:31:51.378Z,101098.30
2022-08-07T16:38:03.426Z,101099.84
2022-08-07T16:43:01.495Z,101099.83
2022-08-07T16:50:20.255Z,101099.68
2022-08-07T16:54:55.127Z,101103.70
2022-08-07T17:00:16.094Z,101101.72
2022-08-07T17:06:19.486Z,101098.36
2022-08-07T17:12:04.680Z,101099.09
2022-08-07T17:17:09.825Z,101099.70
2022-08-07T17:22:30.304Z,101107.89
2022-08-07T17:28:02.338Z,101105.52
2022-08-07T17:34:09.815Z,101110.76
2022-08-07T17:39:02.909Z,101112.21
2022-08-07T17:44:34.047Z,101115.80
2022-08-07T17:49:56.174Z,101118.15
2022-08-07T17:55:04.438Z,101123.81
2022-08-07T18:00:12.582Z,101125.90
2022-08-07T18:06:01.931Z,101132.01
2022-08-07T18:11:53.659Z,101132.56
2022-08-07T18:16:57.434Z,101134.61
2022-08-07T18:22:30.893Z,101136.29
2022-08-07T18:27:55.583Z,101137.40
2022-08-07T18:33:27.011Z,101140.61
2022-08-07T18:38:57.382Z,101146.37
2022-08-07T18:44:24.117Z,101155.39
2022-08-07T18:50:35.000Z,101164.55
2022-08-07T18:55:56.161Z,101176.08
2022-08-07T19:02:17.373Z,101175.59
2022-08-07T19:06:49.681Z,101173.05
2022-08-07T19:12:05.475Z,101181.21
2022-08-07T19:18:01.512Z,101178.86
2022-08-07T19:23:03.182Z,101185.09
2022-08-07T19:28:57.315Z,101189.91
2022-08-07T19:33:56.507Z,101191.08
2022-08-07T19:39:09.210Z,101198.49
2022-08-07T19:44:21.685Z,101201.84
2022-08-07T19:49:58.293Z,101201.05
2022-08-07T19:54:56.401Z,101202.52
2022-08-07T20:00:08.747Z,101208.49
2022-08-07T20:05:19.810Z,101213.39
2022-08-07T20:10:37.683Z,101215.71
2022-08-07T20:15:57.759Z,101216.48
2022-08-07T20:21:14.511Z,101221.31
2022-08-07T20:26:29.852Z,101225.39
2022-08-07T20:31:37.202Z,101233.96
2022-08-07T20:36:44.090Z,101242.20
2022-08-07T20:41:55.136Z,101244.17
2022-08-07T20:47:05.768Z,101241.34
2022-08-07T20:52:29.884Z,101241.69
2022-08-07T20:58:04.046Z,101240.98
2022-08-07T21:03:14.318Z,101238.17
2022-08-07T21:08:37.001Z,101237.91
2022-08-07T21:14:20.243Z,101237.35
2022-08-07T21:19:14.073Z,101234.65
2022-08-07T21:24:21.492Z,101241.77
2022-08-07T21:29:39.584Z,101249.01
2022-08-07T21:35:11.505Z,101250.52
2022-08-07T21:40:26.094Z,101250.60
2022-08-07T21:46:08.751Z,101259.27
2022-08-07T21:51:32.269Z,101253.43
2022-08-07T21:57:05.479Z,101252.21
2022-08-07T22:02:19.257Z,101247.14
2022-08-07T22:07:42.765Z,101249.66
2022-08-07T22:13:01.291Z,101245.66
2022-08-07T22:18:07.409Z,101242.44
2022-08-07T22:23:25.102Z,101244.66
2022-08-07T22:28:59.390Z,101245.27
2022-08-07T22:34:12.983Z,101238.30
2022-08-07T22:39:53.149Z,101233.02
2022-08-07T22:45:02.027Z,101231.02
2022-08-07T22:50:20.626Z,101226.51
2022-08-07T22:56:13.098Z,101222.19
2022-08-07T23:01:50.536Z,101227.77
2022-08-07T23:07:39.761Z,101225.05
2022-08-07T23:13:04.958Z,101220.77
2022-08-07T23:18:32.129Z,101221.30
2022-08-07T23:24:05.607Z,101216.92
2022-08-07T23:29:43.782Z,101216.05
2022-08-07T23:35:01.435Z,101222.30
2022-08-07T23:40:26.344Z,101220.23
2022-08-07T23:46:02.940Z,101223.25
2022-08-07T23:52:59.667Z,101224.36
2022-08-07T23:56:58.231Z,101228.19
